createdAt,value
2022-09-13T00:04:18.006Z,19.57
2022-09-13T00:09:19.585Z,19.57
2022-09-13T00:14:21.188Z,19.57
2022-09-13T00:19:22.789Z,19.56
2022-09-13T00:24:24.373Z,19.52
2022-09-13T00:29:26.946Z,19.54
2022-09-13T00:34:28.632Z,19.52
2022-09-13T00:39:30.405Z,19.52
2022-09-13T00:44:58.689Z,19.51
2022-09-13T00:50:31.610Z,19.46
2022-09-13T00:55:44.446Z,19.44
2022-09-13T01:00:46.450Z,19.42
2022-09-13T01:05:54.630Z,19.43
2022-09-13T01:11:00.019Z,19.39
2022-09-13T01:16:02.064Z,19.36
2022-09-13T01:21:26.587Z,19.37
2022-09-13T01:27:05.677Z,19.31
2022-09-13T01:32:38.158Z,19.30
2022-09-13T01:37:52.211Z,19.25
2022-09-13T01:42:53.836Z,19.22
2022-09-13T01:48:03.161Z,19.16
2022-09-13T01:53:07.785Z,19.19
2022-09-13T01:58:15.874Z,19.14
2022-09-13T02:03:29.724Z,19.14
2022-09-13T02:08:41.120Z,19.14
2022-09-13T02:14:08.177Z,19.09
2022-09-13T02:19:20.137Z,19.01
2022-09-13T02:24:50.922Z,18.92
2022-09-13T02:29:58.724Z,18.96
2022-09-13T02:35:19.252Z,18.92
2022-09-13T02:40:26.173Z,18.88
2022-09-13T02:45:36.344Z,18.88
2022-09-13T02:50:55.678Z,18.88
2022-09-13T02:56:35.322Z,18.89
2022-09-13T03:01:38.571Z,18.85
2022-09-13T03:06:42.310Z,18.87
2022-09-13T03:12:02.881Z,18.89
2022-09-13T03:17:04.459Z,18.91
2022-09-13T03:22:19.013Z,18.94
2022-09-13T03:27:32.525Z,18.92
2022-09-13T03:32:50.144Z,18.91
2022-09-13T03:38:13.869Z,18.90
2022-09-13T03:43:21.164Z,18.91
2022-09-13T03:48:24.220Z,18.85
2022-09-13T03:53:29.111Z,18.79
2022-09-13T03:58:31.102Z,18.77
2022-09-13T04:03:33.890Z,18.77
2022-09-13T04:08:44.525Z,18.80
2022-09-13T04:13:46.490Z,18.85
2022-09-13T04:18:53.602Z,18.88
2022-09-13T04:23:55.607Z,18.89
2022-09-13T04:28:58.517Z,18.93
2022-09-13T04:34:00.532Z,18.94
2022-09-13T04:39:04.549Z,18.95
2022-09-13T04:44:06.215Z,18.95
2022-09-13T04:49:10.486Z,18.93
2022-09-13T04:54:15.504Z,18.92
2022-09-13T04:59:37.049Z,18.97
2022-09-13T05:04:38.976Z,19.06
2022-09-13T05:09:40.942Z,19.04
2022-09-13T05:14:42.724Z,19.04
2022-09-13T05:19:44.387Z,19.05
2022-09-13T05:24:45.996Z,19.06
2022-09-13T05:29:48.066Z,19.11
2022-09-13T05:34:50.978Z,19.02
2022-09-13T05:40:11.542Z,18.95
2022-09-13T05:45:14.092Z,18.99
2022-09-13T05:50:38.513Z,19.04
2022-09-13T05:55:37.637Z,18.96
2022-09-13T06:00:39.208Z,18.95
2022-09-13T06:05:40.759Z,18.95
2022-09-13T06:10:42.418Z,18.95
2022-09-13T06:15:44.023Z,18.94
2022-09-13T06:20:46.321Z,18.94
2022-09-13T06:25:48.048Z,18.94
2022-09-13T06:30:49.649Z,18.97
2022-09-13T06:35:51.292Z,18.95
2022-09-13T06:41:06.361Z,18.98
2022-09-13T06:46:10.387Z,19.05
2022-09-13T06:51:15.579Z,19.03
2022-09-13T06:56:20.782Z,19.09
2022-09-13T07:01:28.323Z,19.16
2022-09-13T07:06:32.367Z,19.15
2022-09-13T07:11:36.819Z,19.17
2022-09-13T07:16:38.644Z,19.21
2022-09-13T07:21:40.434Z,19.26
2022-09-13T07:26:42.162Z,19.32
2022-09-13T07:31:46.437Z,19.32
2022-09-13T07:36:48.908Z,19.27
2022-09-13T07:41:51.726Z,19.35
2022-09-13T07:46:53.333Z,19.43
2022-09-13T07:51:55.050Z,19.57
2022-09-13T07:56:56.759Z,19.56
2022-09-13T08:01:58.649Z,19.58
2022-09-13T08:07:00.392Z,19.56
2022-09-13T08:12:02.471Z,19.67
2022-09-13T08:17:04.372Z,19.72
2022-09-13T08:22:06.053Z,19.71
2022-09-13T08:27:08.099Z,19.63
2022-09-13T08:32:09.803Z,19.82
2022-09-13T08:37:12.912Z,19.99
2022-09-13T08:42:34.525Z,20.29
2022-09-13T08:47:40.578Z,20.41
2022-09-13T08:53:01.046Z,20.32
2022-09-13T08:58:30.495Z,20.23
2022-09-13T09:03:43.276Z,20.26
2022-09-13T09:09:11.009Z,20.14
2022-09-13T09:14:18.349Z,20.30
2022-09-13T09:19:34.340Z,20.39
2022-09-13T09:24:37.757Z,20.46
2022-09-13T09:29:43.945Z,20.60
2022-09-13T09:35:20.165Z,20.87
2022-09-13T09:40:22.083Z,21.13
2022-09-13T09:45:33.809Z,21.27
2022-09-13T09:50:40.579Z,21.40
2022-09-13T09:55:57.565Z,21.52
2022-09-13T10:00:59.295Z,21.62
2022-09-13T10:06:11.124Z,21.70
2022-09-13T10:11:12.851Z,21.70
2022-09-13T10:16:28.166Z,21.85
2022-09-13T10:21:30.884Z,21.80
2022-09-13T10:26:34.092Z,21.86
2022-09-13T10:31:50.151Z,21.96
2022-09-13T10:37:24.554Z,22.12
2022-09-13T10:42:28.159Z,22.13
2022-09-13T10:47:33.571Z,21.97
2022-09-13T10:52:43.357Z,22.01
2022-09-13T10:57:53.862Z,22.21
2022-09-13T11:02:58.756Z,22.51
2022-09-13T11:08:18.823Z,22.74
2022-09-13T11:13:52.595Z,22.85
2022-09-13T11:19:21.350Z,23.11
2022-09-13T11:24:42.655Z,22.80
2022-09-13T11:30:04.221Z,22.94
2022-09-13T11:35:24.940Z,23.25
2022-09-13T11:40:42.720Z,23.38
2022-09-13T11:45:57.746Z,23.66
2022-09-13T11:51:33.953Z,23.67
2022-09-13T11:56:38.121Z,23.79
2022-09-13T12:01:45.587Z,23.51
2022-09-13T12:06:54.225Z,23.57
2022-09-13T12:12:13.239Z,23.39
2022-09-13T12:17:29.399Z,23.33
2022-09-13T12:22:36.037Z,23.47
2022-09-13T12:27:47.818Z,23.62
2022-09-13T12:32:50.602Z,23.78
2022-09-13T12:38:23.225Z,23.77
2022-09-13T12:43:25.043Z,23.65
2022-09-13T12:48:49.494Z,23.89
2022-09-13T12:54:34.070Z,23.84
2022-09-13T12:59:45.049Z,23.55
2022-09-13T13:04:54.359Z,23.72
2022-09-13T13:09:57.642Z,23.92
2022-09-13T13:15:25.499Z,24.06
2022-09-13T13:20:56.183Z,24.08
2022-09-13T13:26:01.071Z,24.25
2022-09-13T13:31:02.806Z,24.29
2022-09-13T13:36:33.604Z,24.05
2022-09-13T13:41:41.723Z,23.84
2022-09-13T13:46:44.475Z,23.73
2022-09-13T13:51:46.156Z,24.00
2022-09-13T13:56:50.318Z,24.03
2022-09-13T14:01:59.382Z,23.90
2022-09-13T14:07:21.307Z,23.74
2022-09-13T14:12:38.640Z,23.60
2022-09-13T14:18:18.834Z,23.48
2022-09-13T14:23:20.363Z,23.87
2022-09-13T14:28:23.173Z,23.93
2022-09-13T14:33:35.130Z,23.67
2022-09-13T14:38:37.047Z,23.59
2022-09-13T14:43:38.877Z,23.35
2022-09-13T14:49:02.819Z,23.34
2022-09-13T14:54:16.675Z,23.18
2022-09-13T14:59:33.114Z,23.13
2022-09-13T15:04:34.906Z,23.43
2022-09-13T15:09:38.435Z,23.43
2022-09-13T15:14:40.350Z,23.28
2022-09-13T15:19:52.496Z,23.34
2022-09-13T15:24:58.183Z,23.20
2022-09-13T15:30:03.810Z,23.17
2022-09-13T15:35:24.028Z,23.33
2022-09-13T15:40:28.194Z,23.13
2022-09-13T15:45:29.856Z,22.99
2022-09-13T15:50:33.324Z,22.87
2022-09-13T15:55:35.093Z,22.74
2022-09-13T16:00:36.846Z,22.70
2022-09-13T16:05:39.153Z,22.52
2022-09-13T16:10:44.904Z,22.42
2022-09-13T16:15:46.633Z,22.50
2022-09-13T16:20:48.351Z,22.27
2022-09-13T16:25:56.173Z,22.25
2022-09-13T16:30:57.990Z,22.34
2022-09-13T16:36:02.246Z,22.13
2022-09-13T16:41:07.510Z,22.02
2022-09-13T16:46:10.397Z,21.85
2022-09-13T16:51:13.282Z,21.85
2022-09-13T16:56:17.195Z,21.64
2022-09-13T17:01:27.649Z,21.64
2022-09-13T17:06:29.347Z,21.62
2022-09-13T17:11:34.528Z,21.53
2022-09-13T17:16:39.259Z,21.31
2022-09-13T17:21:41.582Z,21.39
2022-09-13T17:26:44.832Z,21.26
2022-09-13T17:31:46.883Z,21.04
2022-09-13T17:36:51.136Z,21.27
2022-09-13T17:46:54.653Z,21.19
2022-09-13T17:51:56.552Z,21.32
2022-09-13T17:56:58.471Z,21.27
2022-09-13T18:02:01.196Z,21.36
2022-09-13T18:07:12.762Z,21.14
2022-09-13T18:12:18.696Z,20.86
2022-09-13T18:17:26.356Z,20.74
2022-09-13T18:22:31.029Z,20.95
2022-09-13T18:27:32.906Z,20.84
2022-09-13T18:32:34.644Z,20.63
2022-09-13T18:37:36.553Z,20.50
2022-09-13T18:42:40.930Z,20.34
2022-09-13T18:47:42.901Z,20.52
2022-09-13T18:52:44.551Z,20.30
2022-09-13T18:57:46.249Z,20.37
2022-09-13T19:03:10.817Z,20.15
2022-09-13T19:08:12.724Z,20.04
2022-09-13T19:13:14.635Z,19.92
2022-09-13T19:18:16.551Z,19.70
2022-09-13T19:23:18.524Z,19.73
2022-09-13T19:28:20.300Z,19.66
2022-09-13T19:33:22.244Z,19.54
2022-09-13T19:38:30.744Z,19.51
2022-09-13T19:43:38.858Z,19.45
2022-09-13T19:48:46.719Z,19.53
2022-09-13T19:53:58.073Z,19.45
2022-09-13T19:59:01.906Z,19.48
2022-09-13T20:04:12.965Z,19.42
2022-09-13T20:09:20.027Z,19.27
2022-09-13T20:20:55.990Z,19.16
2022-09-13T20:26:43.106Z,19.08
2022-09-13T20:32:35.265Z,18.91
2022-09-13T20:43:31.081Z,18.86
2022-09-13T20:48:38.688Z,18.87
2022-09-13T20:53:41.560Z,18.76
2022-09-13T20:58:45.339Z,18.69
2022-09-13T21:04:07.996Z,18.65
2022-09-13T21:09:12.241Z,18.72
2022-09-13T21:14:14.477Z,18.71
2022-09-13T21:19:16.919Z,18.68
2022-09-13T21:24:21.442Z,18.62
2022-09-13T21:29:35.297Z,18.66
2022-09-13T21:34:37.355Z,18.51
2022-09-13T21:39:38.955Z,18.48
2022-09-13T21:44:40.795Z,18.42
2022-09-13T21:49:45.310Z,18.34
2022-09-13T21:54:46.894Z,18.28
2022-09-13T21:59:50.265Z,18.24
2022-09-13T22:04:51.987Z,18.15
2022-09-13T22:09:53.543Z,18.11
2022-09-13T22:14:55.196Z,18.06
2022-09-13T22:19:56.844Z,18.05
2022-09-13T22:24:58.471Z,18.02
2022-09-13T22:30:00.554Z,18.02
2022-09-13T22:35:02.316Z,17.99
2022-09-13T22:40:04.909Z,17.93
2022-09-13T22:45:30.172Z,17.86
2022-09-13T22:50:34.172Z,17.80
2022-09-13T22:55:35.735Z,17.70
2022-09-13T23:00:37.611Z,17.65
2022-09-13T23:05:39.808Z,17.54
2022-09-13T23:10:41.375Z,17.45
2022-09-13T23:15:43.047Z,17.44
2022-09-13T23:20:44.640Z,17.38
2022-09-13T23:25:46.356Z,17.33
2022-09-13T23:30:48.135Z,17.25
2022-09-13T23:35:50.955Z,17.23
2022-09-13T23:40:52.560Z,17.19
2022-09-13T23:45:54.851Z,17.15
2022-09-13T23:51:05.470Z,17.06
2022-09-13T23:56:08.200Z,17.03
